sensor_id;sensor_type;location;lat;lon;timestamp;P1;durP1;ratioP1;P2;durP2;ratioP2
6898;SDS011;3488;42.616;23.350;2023-08-21T00:01:43;6.93;;;5.00;;
6898;SDS011;3488;42.616;23.350;2023-08-21T00:04:10;4.75;;;4.45;;
6898;SDS011;3488;42.616;23.350;2023-08-21T00:06:37;5.03;;;4.63;;
6898;SDS011;3488;42.616;23.350;2023-08-21T00:09:04;6.60;;;4.40;;
6898;SDS011;3488;42.616;23.350;2023-08-21T00:11:32;6.03;;;4.53;;
6898;SDS011;3488;42.616;23.350;2023-08-21T00:14:00;5.22;;;4.75;;
6898;SDS011;3488;42.616;23.350;2023-08-21T00:16:27;7.65;;;4.80;;
6898;SDS011;3488;42.616;23.350;2023-08-21T00:18:55;7.80;;;5.03;;
6898;SDS011;3488;42.616;23.350;2023-08-21T00:21:22;4.68;;;4.38;;
6898;SDS011;3488;42.616;23.350;2023-08-21T00:23:49;4.60;;;4.30;;
6898;SDS011;3488;42.616;23.350;2023-08-21T00:26:16;6.45;;;4.25;;
6898;SDS011;3488;42.616;23.350;2023-08-21T00:28:44;5.28;;;4.82;;
6898;SDS011;3488;42.616;23.350;2023-08-21T00:31:12;4.55;;;4.15;;
6898;SDS011;3488;42.616;23.350;2023-08-21T00:33:39;5.03;;;4.72;;
6898;SDS011;3488;42.616;23.350;2023-08-21T00:36:06;4.85;;;4.32;;
6898;SDS011;3488;42.616;23.350;2023-08-21T00:38:33;5.05;;;4.55;;
6898;SDS011;3488;42.616;23.350;2023-08-21T00:41:01;4.47;;;4.07;;
6898;SDS011;3488;42.616;23.350;2023-08-21T00:43:28;4.38;;;4.07;;
6898;SDS011;3488;42.616;23.350;2023-08-21T00:45:55;4.35;;;4.05;;
6898;SDS011;3488;42.616;23.350;2023-08-21T00:48:23;4.32;;;4.13;;
6898;SDS011;3488;42.616;23.350;2023-08-21T00:50:51;4.93;;;4.53;;
6898;SDS011;3488;42.616;23.350;2023-08-21T00:53:18;4.88;;;4.15;;
6898;SDS011;3488;42.616;23.350;2023-08-21T00:55:45;5.03;;;4.63;;
6898;SDS011;3488;42.616;23.350;2023-08-21T00:58:13;5.22;;;4.88;;
6898;SDS011;3488;42.616;23.350;2023-08-21T01:00:41;4.80;;;4.50;;
6898;SDS011;3488;42.616;23.350;2023-08-21T01:03:11;4.82;;;4.38;;
6898;SDS011;3488;42.616;23.350;2023-08-21T01:05:39;9.50;;;4.95;;
6898;SDS011;3488;42.616;23.350;2023-08-21T01:08:06;5.95;;;5.03;;
6898;SDS011;3488;42.616;23.350;2023-08-21T01:10:43;5.43;;;4.97;;
6898;SDS011;3488;42.616;23.350;2023-08-21T01:13:21;5.22;;;4.72;;
6898;SDS011;3488;42.616;23.350;2023-08-21T01:15:56;5.78;;;4.65;;
6898;SDS011;3488;42.616;23.350;2023-08-21T01:18:25;4.13;;;3.92;;
6898;SDS011;3488;42.616;23.350;2023-08-21T01:20:56;5.07;;;4.68;;
6898;SDS011;3488;42.616;23.350;2023-08-21T01:23:32;5.60;;;4.68;;
6898;SDS011;3488;42.616;23.350;2023-08-21T01:26:00;5.03;;;4.47;;
6898;SDS011;3488;42.616;23.350;2023-08-21T01:28:27;4.20;;;4.00;;
6898;SDS011;3488;42.616;23.350;2023-08-21T01:30:56;5.15;;;4.65;;
6898;SDS011;3488;42.616;23.350;2023-08-21T01:33:28;4.63;;;4.32;;
6898;SDS011;3488;42.616;23.350;2023-08-21T01:35:59;4.75;;;4.35;;
6898;SDS011;3488;42.616;23.350;2023-08-21T01:38:29;4.90;;;4.50;;
6898;SDS011;3488;42.616;23.350;2023-08-21T01:40:59;5.20;;;4.30;;
6898;SDS011;3488;42.616;23.350;2023-08-21T01:43:26;5.10;;;4.20;;
6898;SDS011;3488;42.616;23.350;2023-08-21T01:45:53;5.07;;;4.78;;
6898;SDS011;3488;42.616;23.350;2023-08-21T01:48:20;7.22;;;4.43;;
6898;SDS011;3488;42.616;23.350;2023-08-21T01:50:47;4.78;;;4.47;;
6898;SDS011;3488;42.616;23.350;2023-08-21T01:53:14;5.80;;;4.18;;
6898;SDS011;3488;42.616;23.350;2023-08-21T01:55:41;5.00;;;4.47;;
6898;SDS011;3488;42.616;23.350;2023-08-21T01:58:10;4.35;;;4.05;;
6898;SDS011;3488;42.616;23.350;2023-08-21T02:00:37;5.40;;;4.93;;
6898;SDS011;3488;42.616;23.350;2023-08-21T02:03:04;4.50;;;4.18;;
6898;SDS011;3488;42.616;23.350;2023-08-21T02:05:36;4.90;;;4.60;;
6898;SDS011;3488;42.616;23.350;2023-08-21T02:08:04;4.68;;;4.28;;
6898;SDS011;3488;42.616;23.350;2023-08-21T02:10:31;5.13;;;4.35;;
6898;SDS011;3488;42.616;23.350;2023-08-21T02:12:59;4.78;;;4.40;;
6898;SDS011;3488;42.616;23.350;2023-08-21T02:15:27;6.32;;;4.70;;
6898;SDS011;3488;42.616;23.350;2023-08-21T02:17:54;6.47;;;4.45;;
6898;SDS011;3488;42.616;23.350;2023-08-21T02:20:21;5.63;;;5.22;;
6898;SDS011;3488;42.616;23.350;2023-08-21T02:22:48;4.85;;;4.55;;
6898;SDS011;3488;42.616;23.350;2023-08-21T02:25:15;4.85;;;4.45;;
6898;SDS011;3488;42.616;23.350;2023-08-21T02:27:42;7.00;;;4.45;;
6898;SDS011;3488;42.616;23.350;2023-08-21T02:30:09;5.32;;;4.80;;
6898;SDS011;3488;42.616;23.350;2023-08-21T02:32:38;5.00;;;4.70;;
6898;SDS011;3488;42.616;23.350;2023-08-21T02:35:06;4.43;;;4.15;;
6898;SDS011;3488;42.616;23.350;2023-08-21T02:37:33;4.63;;;4.22;;
6898;SDS011;3488;42.616;23.350;2023-08-21T02:40:04;4.43;;;4.22;;
6898;SDS011;3488;42.616;23.350;2023-08-21T02:42:33;5.00;;;4.60;;
6898;SDS011;3488;42.616;23.350;2023-08-21T02:45:00;4.55;;;4.25;;
6898;SDS011;3488;42.616;23.350;2023-08-21T02:47:33;9.07;;;4.55;;
6898;SDS011;3488;42.616;23.350;2023-08-21T02:50:02;5.35;;;4.95;;
6898;SDS011;3488;42.616;23.350;2023-08-21T02:52:29;4.47;;;4.22;;
6898;SDS011;3488;42.616;23.350;2023-08-21T02:54:57;4.80;;;4.50;;
6898;SDS011;3488;42.616;23.350;2023-08-21T02:57:24;5.05;;;4.60;;
6898;SDS011;3488;42.616;23.350;2023-08-21T02:59:51;8.43;;;5.18;;
6898;SDS011;3488;42.616;23.350;2023-08-21T03:02:18;5.28;;;4.88;;
6898;SDS011;3488;42.616;23.350;2023-08-21T03:04:45;7.30;;;4.68;;
6898;SDS011;3488;42.616;23.350;2023-08-21T03:07:14;4.70;;;4.40;;
6898;SDS011;3488;42.616;23.350;2023-08-21T03:09:44;8.13;;;4.97;;
6898;SDS011;3488;42.616;23.350;2023-08-21T03:12:12;5.45;;;4.95;;
6898;SDS011;3488;42.616;23.350;2023-08-21T03:14:39;5.72;;;4.32;;
6898;SDS011;3488;42.616;23.350;2023-08-21T03:17:06;4.57;;;4.28;;
6898;SDS011;3488;42.616;23.350;2023-08-21T03:19:33;5.55;;;4.35;;
6898;SDS011;3488;42.616;23.350;2023-08-21T03:22:00;4.90;;;4.50;;
6898;SDS011;3488;42.616;23.350;2023-08-21T03:24:29;4.90;;;4.60;;
6898;SDS011;3488;42.616;23.350;2023-08-21T03:26:56;5.88;;;5.28;;
6898;SDS011;3488;42.616;23.350;2023-08-21T03:29:23;5.10;;;4.78;;
6898;SDS011;3488;42.616;23.350;2023-08-21T03:31:52;5.80;;;4.68;;
6898;SDS011;3488;42.616;23.350;2023-08-21T03:34:22;5.65;;;4.90;;
6898;SDS011;3488;42.616;23.350;2023-08-21T03:36:49;5.30;;;4.80;;
6898;SDS011;3488;42.616;23.350;2023-08-21T03:39:16;5.00;;;4.60;;
6898;SDS011;3488;42.616;23.350;2023-08-21T03:41:44;5.10;;;4.60;;
6898;SDS011;3488;42.616;23.350;2023-08-21T03:44:11;5.38;;;5.05;;
6898;SDS011;3488;42.616;23.350;2023-08-21T03:46:38;5.18;;;4.78;;
6898;SDS011;3488;42.616;23.350;2023-08-21T03:49:06;5.00;;;4.60;;
6898;SDS011;3488;42.616;23.350;2023-08-21T03:51:33;5.07;;;4.68;;
6898;SDS011;3488;42.616;23.350;2023-08-21T03:54:00;6.95;;;5.00;;
6898;SDS011;3488;42.616;23.350;2023-08-21T03:56:27;6.72;;;5.85;;
6898;SDS011;3488;42.616;23.350;2023-08-21T03:58:55;5.32;;;4.30;;
6898;SDS011;3488;42.616;23.350;2023-08-21T04:01:22;5.78;;;4.80;;
6898;SDS011;3488;42.616;23.350;2023-08-21T04:03:49;8.35;;;4.95;;
6898;SDS011;3488;42.616;23.350;2023-08-21T04:06:16;5.75;;;5.28;;
6898;SDS011;3488;42.616;23.350;2023-08-21T04:08:43;5.88;;;4.43;;
6898;SDS011;3488;42.616;23.350;2023-08-21T04:11:10;5.07;;;4.57;;
6898;SDS011;3488;42.616;23.350;2023-08-21T04:13:36;4.95;;;4.60;;
6898;SDS011;3488;42.616;23.350;2023-08-21T04:16:05;4.15;;;3.95;;
6898;SDS011;3488;42.616;23.350;2023-08-21T04:18:33;4.95;;;4.32;;
6898;SDS011;3488;42.616;23.350;2023-08-21T04:21:02;4.72;;;4.43;;
6898;SDS011;3488;42.616;23.350;2023-08-21T04:23:29;5.40;;;4.90;;
6898;SDS011;3488;42.616;23.350;2023-08-21T04:25:59;5.72;;;4.82;;
6898;SDS011;3488;42.616;23.350;2023-08-21T04:28:27;4.70;;;4.40;;
6898;SDS011;3488;42.616;23.350;2023-08-21T04:30:54;4.78;;;4.47;;
6898;SDS011;3488;42.616;23.350;2023-08-21T04:33:24;4.45;;;4.15;;
6898;SDS011;3488;42.616;23.350;2023-08-21T04:35:51;4.95;;;4.65;;
6898;SDS011;3488;42.616;23.350;2023-08-21T04:38:18;4.63;;;4.32;;
6898;SDS011;3488;42.616;23.350;2023-08-21T04:40:45;4.90;;;4.50;;
6898;SDS011;3488;42.616;23.350;2023-08-21T04:43:12;5.15;;;4.70;;
6898;SDS011;3488;42.616;23.350;2023-08-21T04:45:45;9.88;;;5.00;;
6898;SDS011;3488;42.616;23.350;2023-08-21T04:48:13;5.60;;;5.10;;
6898;SDS011;3488;42.616;23.350;2023-08-21T04:50:42;5.13;;;4.72;;
6898;SDS011;3488;42.616;23.350;2023-08-21T04:53:09;7.22;;;4.88;;
6898;SDS011;3488;42.616;23.350;2023-08-21T04:55:36;9.05;;;4.35;;
6898;SDS011;3488;42.616;23.350;2023-08-21T04:58:05;6.03;;;5.47;;
6898;SDS011;3488;42.616;23.350;2023-08-21T05:00:33;6.18;;;4.88;;
6898;SDS011;3488;42.616;23.350;2023-08-21T05:03:00;5.63;;;5.13;;
6898;SDS011;3488;42.616;23.350;2023-08-21T05:05:27;6.57;;;4.32;;
6898;SDS011;3488;42.616;23.350;2023-08-21T05:07:56;5.50;;;4.90;;
6898;SDS011;3488;42.616;23.350;2023-08-21T05:10:22;5.60;;;4.85;;
6898;SDS011;3488;42.616;23.350;2023-08-21T05:12:49;5.72;;;5.13;;
6898;SDS011;3488;42.616;23.350;2023-08-21T05:15:16;8.65;;;7.00;;
6898;SDS011;3488;42.616;23.350;2023-08-21T05:17:47;9.73;;;6.57;;
6898;SDS011;3488;42.616;23.350;2023-08-21T05:20:14;6.47;;;5.97;;
6898;SDS011;3488;42.616;23.350;2023-08-21T05:22:41;9.48;;;5.88;;
6898;SDS011;3488;42.616;23.350;2023-08-21T05:25:13;12.45;;;6.10;;
6898;SDS011;3488;42.616;23.350;2023-08-21T05:27:42;5.93;;;5.18;;
6898;SDS011;3488;42.616;23.350;2023-08-21T05:30:10;12.13;;;6.05;;
6898;SDS011;3488;42.616;23.350;2023-08-21T05:32:38;11.25;;;5.55;;
6898;SDS011;3488;42.616;23.350;2023-08-21T05:35:06;9.43;;;6.28;;
6898;SDS011;3488;42.616;23.350;2023-08-21T05:37:34;10.95;;;6.50;;
6898;SDS011;3488;42.616;23.350;2023-08-21T05:40:01;7.85;;;6.90;;
6898;SDS011;3488;42.616;23.350;2023-08-21T05:42:30;8.60;;;7.57;;
6898;SDS011;3488;42.616;23.350;2023-08-21T05:44:57;13.93;;;6.97;;
6898;SDS011;3488;42.616;23.350;2023-08-21T05:47:24;11.48;;;7.20;;
6898;SDS011;3488;42.616;23.350;2023-08-21T05:49:52;16.15;;;7.82;;
6898;SDS011;3488;42.616;23.350;2023-08-21T05:52:20;22.40;;;8.68;;
6898;SDS011;3488;42.616;23.350;2023-08-21T05:54:48;12.95;;;7.28;;
6898;SDS011;3488;42.616;23.350;2023-08-21T05:57:15;25.60;;;9.43;;
6898;SDS011;3488;42.616;23.350;2023-08-21T05:59:44;18.55;;;8.45;;
6898;SDS011;3488;42.616;23.350;2023-08-21T06:02:12;14.68;;;7.03;;
6898;SDS011;3488;42.616;23.350;2023-08-21T06:04:41;10.48;;;7.03;;
6898;SDS011;3488;42.616;23.350;2023-08-21T06:07:09;11.90;;;7.07;;
6898;SDS011;3488;42.616;23.350;2023-08-21T06:09:36;6.88;;;6.20;;
6898;SDS011;3488;42.616;23.350;2023-08-21T06:12:04;13.88;;;7.03;;
6898;SDS011;3488;42.616;23.350;2023-08-21T06:14:32;7.00;;;5.53;;
6898;SDS011;3488;42.616;23.350;2023-08-21T06:17:02;11.65;;;6.75;;
6898;SDS011;3488;42.616;23.350;2023-08-21T06:19:30;18.45;;;7.70;;
6898;SDS011;3488;42.616;23.350;2023-08-21T06:21:58;11.00;;;6.95;;
6898;SDS011;3488;42.616;23.350;2023-08-21T06:24:25;11.82;;;7.13;;
6898;SDS011;3488;42.616;23.350;2023-08-21T06:26:54;14.07;;;8.25;;
6898;SDS011;3488;42.616;23.350;2023-08-21T06:29:21;9.65;;;7.20;;
6898;SDS011;3488;42.616;23.350;2023-08-21T06:31:49;7.80;;;6.50;;
6898;SDS011;3488;42.616;23.350;2023-08-21T06:34:18;10.35;;;6.50;;
6898;SDS011;3488;42.616;23.350;2023-08-21T06:36:45;8.15;;;6.30;;
6898;SDS011;3488;42.616;23.350;2023-08-21T06:39:12;12.18;;;5.68;;
6898;SDS011;3488;42.616;23.350;2023-08-21T06:41:39;6.22;;;5.60;;
6898;SDS011;3488;42.616;23.350;2023-08-21T06:44:06;14.13;;;6.00;;
6898;SDS011;3488;42.616;23.350;2023-08-21T06:46:34;9.23;;;6.15;;
6898;SDS011;3488;42.616;23.350;2023-08-21T06:49:02;8.30;;;6.10;;
6898;SDS011;3488;42.616;23.350;2023-08-21T06:51:31;14.23;;;6.00;;
6898;SDS011;3488;42.616;23.350;2023-08-21T06:53:58;6.72;;;6.13;;
6898;SDS011;3488;42.616;23.350;2023-08-21T06:56:25;8.82;;;6.93;;
6898;SDS011;3488;42.616;23.350;2023-08-21T06:58:52;10.93;;;6.13;;
6898;SDS011;3488;42.616;23.350;2023-08-21T07:01:20;11.07;;;6.30;;
6898;SDS011;3488;42.616;23.350;2023-08-21T07:03:47;12.10;;;6.25;;
6898;SDS011;3488;42.616;23.350;2023-08-21T07:06:15;9.43;;;6.30;;
6898;SDS011;3488;42.616;23.350;2023-08-21T07:08:44;12.07;;;6.32;;
6898;SDS011;3488;42.616;23.350;2023-08-21T07:11:11;13.23;;;6.13;;
6898;SDS011;3488;42.616;23.350;2023-08-21T07:13:38;8.48;;;5.50;;
6898;SDS011;3488;42.616;23.350;2023-08-21T07:16:05;5.80;;;5.43;;
6898;SDS011;3488;42.616;23.350;2023-08-21T07:18:34;11.18;;;7.13;;
6898;SDS011;3488;42.616;23.350;2023-08-21T07:21:01;6.10;;;5.35;;
6898;SDS011;3488;42.616;23.350;2023-08-21T07:23:29;6.47;;;5.78;;
6898;SDS011;3488;42.616;23.350;2023-08-21T07:25:58;6.75;;;5.68;;
6898;SDS011;3488;42.616;23.350;2023-08-21T07:28:26;12.00;;;6.03;;
6898;SDS011;3488;42.616;23.350;2023-08-21T07:30:56;10.00;;;5.78;;
6898;SDS011;3488;42.616;23.350;2023-08-21T07:33:24;6.07;;;5.57;;
6898;SDS011;3488;42.616;23.350;2023-08-21T07:36:00;7.65;;;5.22;;
6898;SDS011;3488;42.616;23.350;2023-08-21T07:38:28;7.32;;;5.32;;
6898;SDS011;3488;42.616;23.350;2023-08-21T07:41:03;6.40;;;5.85;;
6898;SDS011;3488;42.616;23.350;2023-08-21T07:43:32;5.80;;;5.22;;
6898;SDS011;3488;42.616;23.350;2023-08-21T07:46:02;6.20;;;5.60;;
6898;SDS011;3488;42.616;23.350;2023-08-21T07:48:29;7.93;;;5.30;;
6898;SDS011;3488;42.616;23.350;2023-08-21T07:50:57;12.15;;;5.60;;
6898;SDS011;3488;42.616;23.350;2023-08-21T07:53:24;11.52;;;5.13;;
6898;SDS011;3488;42.616;23.350;2023-08-21T07:55:52;6.95;;;5.43;;
6898;SDS011;3488;42.616;23.350;2023-08-21T07:58:21;5.20;;;4.85;;
6898;SDS011;3488;42.616;23.350;2023-08-21T08:00:48;4.95;;;4.65;;
6898;SDS011;3488;42.616;23.350;2023-08-21T08:03:15;8.02;;;5.30;;
6898;SDS011;3488;42.616;23.350;2023-08-21T08:05:42;5.68;;;5.05;;
6898;SDS011;3488;42.616;23.350;2023-08-21T08:08:09;8.02;;;5.20;;
6898;SDS011;3488;42.616;23.350;2023-08-21T08:10:37;6.40;;;5.80;;
6898;SDS011;3488;42.616;23.350;2023-08-21T08:13:05;6.70;;;5.30;;
6898;SDS011;3488;42.616;23.350;2023-08-21T08:15:34;5.20;;;4.90;;
6898;SDS011;3488;42.616;23.350;2023-08-21T08:18:01;5.93;;;5.38;;
6898;SDS011;3488;42.616;23.350;2023-08-21T08:20:30;8.30;;;5.20;;
6898;SDS011;3488;42.616;23.350;2023-08-21T08:22:57;4.70;;;4.40;;
6898;SDS011;3488;42.616;23.350;2023-08-21T08:25:24;5.47;;;5.03;;
6898;SDS011;3488;42.616;23.350;2023-08-21T08:27:51;5.47;;;4.90;;
6898;SDS011;3488;42.616;23.350;2023-08-21T08:30:19;8.93;;;4.95;;
6898;SDS011;3488;42.616;23.350;2023-08-21T08:32:50;5.70;;;5.20;;
6898;SDS011;3488;42.616;23.350;2023-08-21T08:35:18;8.35;;;5.68;;
6898;SDS011;3488;42.616;23.350;2023-08-21T08:37:45;6.07;;;5.30;;
6898;SDS011;3488;42.616;23.350;2023-08-21T08:40:12;8.52;;;5.32;;
6898;SDS011;3488;42.616;23.350;2023-08-21T08:42:40;6.60;;;4.93;;
6898;SDS011;3488;42.616;23.350;2023-08-21T08:45:08;7.55;;;6.28;;
6898;SDS011;3488;42.616;23.350;2023-08-21T08:47:38;5.85;;;5.20;;
6898;SDS011;3488;42.616;23.350;2023-08-21T08:50:09;5.78;;;5.15;;
6898;SDS011;3488;42.616;23.350;2023-08-21T08:52:38;5.32;;;4.85;;
6898;SDS011;3488;42.616;23.350;2023-08-21T08:55:06;5.60;;;4.68;;
6898;SDS011;3488;42.616;23.350;2023-08-21T08:57:34;5.13;;;4.72;;
6898;SDS011;3488;42.616;23.350;2023-08-21T09:00:01;8.00;;;5.00;;
6898;SDS011;3488;42.616;23.350;2023-08-21T09:02:29;7.93;;;5.05;;
6898;SDS011;3488;42.616;23.350;2023-08-21T09:04:57;5.00;;;4.60;;
6898;SDS011;3488;42.616;23.350;2023-08-21T09:07:26;4.57;;;4.22;;
6898;SDS011;3488;42.616;23.350;2023-08-21T09:09:53;7.13;;;4.57;;
6898;SDS011;3488;42.616;23.350;2023-08-21T09:12:20;5.45;;;4.97;;
6898;SDS011;3488;42.616;23.350;2023-08-21T09:14:47;4.75;;;4.35;;
6898;SDS011;3488;42.616;23.350;2023-08-21T09:17:15;5.75;;;5.15;;
6898;SDS011;3488;42.616;23.350;2023-08-21T09:19:42;5.45;;;4.85;;
6898;SDS011;3488;42.616;23.350;2023-08-21T09:22:10;5.30;;;4.53;;
6898;SDS011;3488;42.616;23.350;2023-08-21T09:24:41;5.80;;;5.30;;
6898;SDS011;3488;42.616;23.350;2023-08-21T09:27:31;5.47;;;5.10;;
6898;SDS011;3488;42.616;23.350;2023-08-21T09:29:59;5.22;;;4.93;;
6898;SDS011;3488;42.616;23.350;2023-08-21T09:32:27;6.03;;;5.32;;
6898;SDS011;3488;42.616;23.350;2023-08-21T09:34:54;9.02;;;4.80;;
6898;SDS011;3488;42.616;23.350;2023-08-21T09:37:23;6.85;;;5.20;;
6898;SDS011;3488;42.616;23.350;2023-08-21T09:39:56;8.68;;;4.82;;
6898;SDS011;3488;42.616;23.350;2023-08-21T09:42:29;5.50;;;5.03;;
6898;SDS011;3488;42.616;23.350;2023-08-21T09:44:56;6.75;;;5.10;;
6898;SDS011;3488;42.616;23.350;2023-08-21T09:47:23;8.18;;;5.18;;
6898;SDS011;3488;42.616;23.350;2023-08-21T09:49:52;5.65;;;5.25;;
6898;SDS011;3488;42.616;23.350;2023-08-21T09:52:19;5.30;;;4.90;;
6898;SDS011;3488;42.616;23.350;2023-08-21T09:54:47;5.80;;;5.10;;
6898;SDS011;3488;42.616;23.350;2023-08-21T09:57:16;6.10;;;4.72;;
6898;SDS011;3488;42.616;23.350;2023-08-21T09:59:43;5.43;;;5.03;;
6898;SDS011;3488;42.616;23.350;2023-08-21T10:02:11;9.95;;;4.90;;
6898;SDS011;3488;42.616;23.350;2023-08-21T10:04:38;6.88;;;4.30;;
6898;SDS011;3488;42.616;23.350;2023-08-21T10:07:10;5.45;;;4.90;;
6898;SDS011;3488;42.616;23.350;2023-08-21T10:09:38;6.43;;;5.43;;
6898;SDS011;3488;42.616;23.350;2023-08-21T10:12:08;12.60;;;5.50;;
6898;SDS011;3488;42.616;23.350;2023-08-21T10:14:37;5.38;;;4.93;;
6898;SDS011;3488;42.616;23.350;2023-08-21T10:17:05;11.70;;;4.30;;
6898;SDS011;3488;42.616;23.350;2023-08-21T10:19:33;8.02;;;4.85;;
6898;SDS011;3488;42.616;23.350;2023-08-21T10:22:01;5.45;;;4.97;;
6898;SDS011;3488;42.616;23.350;2023-08-21T10:24:28;4.97;;;4.57;;
6898;SDS011;3488;42.616;23.350;2023-08-21T10:27:01;4.53;;;4.22;;
6898;SDS011;3488;42.616;23.350;2023-08-21T10:29:28;4.45;;;4.13;;
6898;SDS011;3488;42.616;23.350;2023-08-21T10:32:01;8.80;;;4.55;;
6898;SDS011;3488;42.616;23.350;2023-08-21T10:34:32;5.43;;;4.40;;
6898;SDS011;3488;42.616;23.350;2023-08-21T10:37:03;5.47;;;4.28;;
6898;SDS011;3488;42.616;23.350;2023-08-21T10:39:32;4.40;;;4.10;;
6898;SDS011;3488;42.616;23.350;2023-08-21T10:42:03;5.05;;;4.75;;
6898;SDS011;3488;42.616;23.350;2023-08-21T10:44:52;5.18;;;4.80;;
6898;SDS011;3488;42.616;23.350;2023-08-21T10:47:23;5.00;;;4.70;;
6898;SDS011;3488;42.616;23.350;2023-08-21T10:49:58;4.25;;;3.95;;
6898;SDS011;3488;42.616;23.350;2023-08-21T10:52:26;4.63;;;4.22;;
6898;SDS011;3488;42.616;23.350;2023-08-21T10:54:56;4.40;;;4.00;;
6898;SDS011;3488;42.616;23.350;2023-08-21T10:57:26;5.35;;;4.30;;
6898;SDS011;3488;42.616;23.350;2023-08-21T10:59:55;5.10;;;3.95;;
6898;SDS011;3488;42.616;23.350;2023-08-21T11:02:31;5.07;;;4.55;;
6898;SDS011;3488;42.616;23.350;2023-08-21T11:04:59;11.55;;;4.90;;
6898;SDS011;3488;42.616;23.350;2023-08-21T11:07:28;5.70;;;4.43;;
6898;SDS011;3488;42.616;23.350;2023-08-21T11:09:56;4.05;;;3.85;;
6898;SDS011;3488;42.616;23.350;2023-08-21T11:12:23;5.10;;;4.68;;
6898;SDS011;3488;42.616;23.350;2023-08-21T11:14:51;5.13;;;4.82;;
6898;SDS011;3488;42.616;23.350;2023-08-21T11:17:18;4.55;;;4.15;;
6898;SDS011;3488;42.616;23.350;2023-08-21T11:19:47;4.93;;;4.53;;
6898;SDS011;3488;42.616;23.350;2023-08-21T11:22:15;5.55;;;4.97;;
6898;SDS011;3488;42.616;23.350;2023-08-21T11:24:43;5.32;;;4.50;;
6898;SDS011;3488;42.616;23.350;2023-08-21T11:27:12;7.63;;;4.78;;
6898;SDS011;3488;42.616;23.350;2023-08-21T11:29:41;5.05;;;4.75;;
6898;SDS011;3488;42.616;23.350;2023-08-21T11:32:09;5.57;;;4.63;;
6898;SDS011;3488;42.616;23.350;2023-08-21T11:34:37;6.35;;;4.82;;
6898;SDS011;3488;42.616;23.350;2023-08-21T11:37:06;4.47;;;4.28;;
6898;SDS011;3488;42.616;23.350;2023-08-21T11:39:44;5.47;;;4.20;;
6898;SDS011;3488;42.616;23.350;2023-08-21T11:42:12;5.97;;;4.57;;
6898;SDS011;3488;42.616;23.350;2023-08-21T11:44:40;6.07;;;4.47;;
6898;SDS011;3488;42.616;23.350;2023-08-21T11:47:08;5.38;;;4.60;;
6898;SDS011;3488;42.616;23.350;2023-08-21T11:49:36;7.68;;;4.30;;
6898;SDS011;3488;42.616;23.350;2023-08-21T11:52:05;4.40;;;4.13;;
6898;SDS011;3488;42.616;23.350;2023-08-21T11:54:33;3.95;;;3.65;;
6898;SDS011;3488;42.616;23.350;2023-08-21T11:57:03;5.72;;;4.80;;
6898;SDS011;3488;42.616;23.350;2023-08-21T11:59:32;4.25;;;3.72;;
6898;SDS011;3488;42.616;23.350;2023-08-21T12:01:59;3.70;;;3.50;;
6898;SDS011;3488;42.616;23.350;2023-08-21T12:04:26;4.03;;;3.72;;
6898;SDS011;3488;42.616;23.350;2023-08-21T12:06:56;5.00;;;4.60;;
6898;SDS011;3488;42.616;23.350;2023-08-21T12:09:26;4.10;;;3.85;;
6898;SDS011;3488;42.616;23.350;2023-08-21T12:11:55;9.27;;;4.22;;
6898;SDS011;3488;42.616;23.350;2023-08-21T12:14:22;4.35;;;4.15;;
6898;SDS011;3488;42.616;23.350;2023-08-21T12:16:50;4.18;;;3.85;;
6898;SDS011;3488;42.616;23.350;2023-08-21T12:19:18;5.38;;;3.83;;
6898;SDS011;3488;42.616;23.350;2023-08-21T12:21:46;8.23;;;4.15;;
6898;SDS011;3488;42.616;23.350;2023-08-21T12:24:15;4.43;;;4.00;;
6898;SDS011;3488;42.616;23.350;2023-08-21T12:26:44;4.85;;;4.45;;
6898;SDS011;3488;42.616;23.350;2023-08-21T12:29:11;6.90;;;4.93;;
6898;SDS011;3488;42.616;23.350;2023-08-21T12:31:38;8.55;;;5.07;;
6898;SDS011;3488;42.616;23.350;2023-08-21T12:34:05;5.72;;;4.30;;
6898;SDS011;3488;42.616;23.350;2023-08-21T12:36:33;6.20;;;5.00;;
6898;SDS011;3488;42.616;23.350;2023-08-21T12:39:02;4.82;;;4.38;;
6898;SDS011;3488;42.616;23.350;2023-08-21T12:41:30;4.97;;;4.50;;
6898;SDS011;3488;42.616;23.350;2023-08-21T12:44:00;4.70;;;4.30;;
6898;SDS011;3488;42.616;23.350;2023-08-21T12:46:28;4.82;;;4.43;;
6898;SDS011;3488;42.616;23.350;2023-08-21T12:48:55;7.85;;;4.85;;
6898;SDS011;3488;42.616;23.350;2023-08-21T12:51:24;5.22;;;4.65;;
6898;SDS011;3488;42.616;23.350;2023-08-21T12:53:51;7.05;;;3.97;;
6898;SDS011;3488;42.616;23.350;2023-08-21T12:56:18;4.68;;;4.38;;
6898;SDS011;3488;42.616;23.350;2023-08-21T12:58:46;6.80;;;4.55;;
6898;SDS011;3488;42.616;23.350;2023-08-21T13:01:15;9.25;;;4.68;;
6898;SDS011;3488;42.616;23.350;2023-08-21T13:03:45;4.80;;;4.40;;
6898;SDS011;3488;42.616;23.350;2023-08-21T13:06:13;5.82;;;4.10;;
6898;SDS011;3488;42.616;23.350;2023-08-21T13:08:41;4.90;;;4.60;;
6898;SDS011;3488;42.616;23.350;2023-08-21T13:11:08;4.57;;;4.28;;
6898;SDS011;3488;42.616;23.350;2023-08-21T13:13:35;6.57;;;4.40;;
6898;SDS011;3488;42.616;23.350;2023-08-21T13:16:03;6.60;;;4.30;;
6898;SDS011;3488;42.616;23.350;2023-08-21T13:18:32;4.43;;;4.00;;
6898;SDS011;3488;42.616;23.350;2023-08-21T13:20:59;4.60;;;4.18;;
6898;SDS011;3488;42.616;23.350;2023-08-21T13:23:28;4.53;;;4.28;;
6898;SDS011;3488;42.616;23.350;2023-08-21T13:25:55;4.75;;;4.28;;
6898;SDS011;3488;42.616;23.350;2023-08-21T13:28:22;5.40;;;4.72;;
6898;SDS011;3488;42.616;23.350;2023-08-21T13:30:50;5.18;;;4.78;;
6898;SDS011;3488;42.616;23.350;2023-08-21T13:33:17;4.45;;;4.15;;
6898;SDS011;3488;42.616;23.350;2023-08-21T13:35:46;4.68;;;4.38;;
6898;SDS011;3488;42.616;23.350;2023-08-21T13:38:13;5.72;;;4.43;;
6898;SDS011;3488;42.616;23.350;2023-08-21T13:40:41;6.18;;;4.53;;
6898;SDS011;3488;42.616;23.350;2023-08-21T13:43:09;4.78;;;3.70;;
6898;SDS011;3488;42.616;23.350;2023-08-21T13:45:37;4.30;;;4.07;;
6898;SDS011;3488;42.616;23.350;2023-08-21T13:48:07;6.68;;;4.45;;
6898;SDS011;3488;42.616;23.350;2023-08-21T13:50:34;4.68;;;4.38;;
6898;SDS011;3488;42.616;23.350;2023-08-21T13:53:03;4.40;;;4.10;;
6898;SDS011;3488;42.616;23.350;2023-08-21T13:55:30;4.70;;;3.85;;
6898;SDS011;3488;42.616;23.350;2023-08-21T13:57:57;8.32;;;4.10;;
6898;SDS011;3488;42.616;23.350;2023-08-21T14:00:27;4.63;;;4.20;;
6898;SDS011;3488;42.616;23.350;2023-08-21T14:02:54;6.47;;;5.03;;
6898;SDS011;3488;42.616;23.350;2023-08-21T14:05:21;5.07;;;4.50;;
6898;SDS011;3488;42.616;23.350;2023-08-21T14:07:48;4.93;;;4.10;;
6898;SDS011;3488;42.616;23.350;2023-08-21T14:10:17;4.78;;;3.83;;
6898;SDS011;3488;42.616;23.350;2023-08-21T14:12:44;5.05;;;4.35;;
6898;SDS011;3488;42.616;23.350;2023-08-21T14:15:11;6.03;;;4.03;;
6898;SDS011;3488;42.616;23.350;2023-08-21T14:17:38;4.47;;;3.95;;
6898;SDS011;3488;42.616;23.350;2023-08-21T14:20:05;5.38;;;4.72;;
6898;SDS011;3488;42.616;23.350;2023-08-21T14:22:33;4.43;;;4.10;;
6898;SDS011;3488;42.616;23.350;2023-08-21T14:25:00;5.15;;;4.32;;
6898;SDS011;3488;42.616;23.350;2023-08-21T14:27:31;4.88;;;4.35;;
6898;SDS011;3488;42.616;23.350;2023-08-21T14:29:58;4.60;;;4.22;;
6898;SDS011;3488;42.616;23.350;2023-08-21T14:32:28;5.15;;;4.38;;
6898;SDS011;3488;42.616;23.350;2023-08-21T14:34:56;6.97;;;4.50;;
6898;SDS011;3488;42.616;23.350;2023-08-21T14:37:23;4.95;;;4.65;;
6898;SDS011;3488;42.616;23.350;2023-08-21T14:39:50;5.10;;;4.78;;
6898;SDS011;3488;42.616;23.350;2023-08-21T14:42:17;5.10;;;4.60;;
6898;SDS011;3488;42.616;23.350;2023-08-21T14:44:46;5.93;;;3.95;;
6898;SDS011;3488;42.616;23.350;2023-08-21T14:47:13;4.60;;;4.40;;
6898;SDS011;3488;42.616;23.350;2023-08-21T14:49:41;5.10;;;4.70;;
6898;SDS011;3488;42.616;23.350;2023-08-21T14:52:08;4.85;;;4.05;;
6898;SDS011;3488;42.616;23.350;2023-08-21T14:54:35;4.95;;;4.60;;
6898;SDS011;3488;42.616;23.350;2023-08-21T14:57:03;5.38;;;4.97;;
6898;SDS011;3488;42.616;23.350;2023-08-21T14:59:30;5.20;;;4.80;;
6898;SDS011;3488;42.616;23.350;2023-08-21T15:01:58;4.60;;;4.30;;
6898;SDS011;3488;42.616;23.350;2023-08-21T15:04:25;6.93;;;4.70;;
6898;SDS011;3488;42.616;23.350;2023-08-21T15:06:53;6.95;;;4.90;;